Time;durP1;ratioP1;P1;durP2;ratioP2;P2;SDS_P1;SDS_P2;PMS_P1;PMS_P2;Temp;Humidity;BMP_temperature;BMP_pressure;BME280_temperature;BME280_humidity;BME280_pressure;Samples;Min_cycle;Max_cycle;Signal;HPM_P1;HPM_P2
2024/03/13 00:00:10;;;;;;;;;;;;;;;21.88;26.78;97190.81;5009404;28;1953;-81
2024/03/13 00:02:37;;;;;;;;;;;;;;;21.66;27.15;97196.56;5043082;28;699;-81
2024/03/13 00:05:04;;;;;;;;;;;;;;;21.63;26.98;97191.81;5042286;28;1310;-80
2024/03/13 00:07:31;;;;;;;;;;;;;;;21.63;27.09;97197.47;5043783;28;767;-80
2024/03/13 00:09:57;;;;;;;;;;;;;;;21.93;26.79;97197.91;5026249;28;1179;-80
2024/03/13 00:12:22;;;;;;;;;;;;;;;21.88;26.67;97204.97;5043186;28;875;-81
2024/03/13 00:14:51;;;;;;;;;;;;;;;21.85;26.73;97198.19;5042060;28;1392;-80
2024/03/13 00:17:20;;;;;;;;;;;;;;;21.69;27.00;97201.28;5043369;28;996;-81
2024/03/13 00:19:46;;;;;;;;;;;;;;;21.77;27.05;97199.75;5042204;28;806;-81
2024/03/13 00:22:13;;;;;;;;;;;;;;;21.58;26.95;97198.88;5043370;28;1895;-81
2024/03/13 00:24:39;;;;;;;;;;;;;;;21.56;27.06;97192.09;5042741;28;1269;-80
2024/03/13 00:27:05;;;;;;;;;;;;;;;21.66;26.77;97207.88;5043716;28;1128;-80
2024/03/13 00:29:31;;;;;;;;;;;;;;;22.07;26.53;97214.31;5007764;28;1307;-81
2024/03/13 00:31:56;;;;;;;;;;;;;;;21.83;27.06;97212.03;5025633;28;860;-81
2024/03/13 00:34:22;;;;;;;;;;;;;;;21.82;26.70;97204.00;5006513;28;1517;-81
2024/03/13 00:36:47;;;;;;;;;;;;;;;21.82;26.65;97218.97;5005650;28;1052;-81
2024/03/13 00:39:13;;;;;;;;;;;;;;;21.83;26.69;97212.03;5011320;28;1302;-80
2024/03/13 00:41:39;;;;;;;;;;;;;;;21.75;26.58;97205.06;5025289;28;1985;-80
2024/03/13 00:44:05;;;;;;;;;;;;;;;21.50;27.08;97205.25;5008169;28;1221;-81
2024/03/13 00:46:30;;;;;;;;;;;;;;;21.90;26.78;97196.00;5008806;28;1742;-81
2024/03/13 00:48:57;;;;;;;;;;;;;;;21.91;26.74;97194.75;5023832;28;803;-81
2024/03/13 00:51:23;;;;;;;;;;;;;;;22.02;26.57;97183.75;5008793;28;1072;-80
2024/03/13 00:53:48;;;;;;;;;;;;;;;21.76;26.96;97195.34;5007828;28;930;-80
2024/03/13 00:56:15;;;;;;;;;;;;;;;21.83;26.89;97200.72;5008489;28;1352;-81
2024/03/13 00:58:44;;;;;;;;;;;;;;;21.96;26.52;97194.91;4987944;28;1251;-81
2024/03/13 01:01:11;;;;;;;;;;;;;;;22.02;26.44;97198.75;5022868;28;1922;-81
2024/03/13 01:03:37;;;;;;;;;;;;;;;21.71;26.77;97187.47;5004398;28;1174;-81
2024/03/13 01:06:04;;;;;;;;;;;;;;;21.67;27.15;97191.69;5005672;28;1325;-81
2024/03/13 01:08:30;;;;;;;;;;;;;;;21.85;26.99;97181.19;4961585;29;896;-80
2024/03/13 01:10:55;;;;;;;;;;;;;;;21.89;26.79;97185.94;4947778;29;1015;-81
2024/03/13 01:13:21;;;;;;;;;;;;;;;21.84;26.67;97185.28;4945784;29;1042;-81
2024/03/13 01:15:47;;;;;;;;;;;;;;;21.74;26.94;97180.06;4941069;29;1547;-83
2024/03/13 01:18:12;;;;;;;;;;;;;;;21.43;27.36;97188.56;4923420;29;929;-83
2024/03/13 01:20:39;;;;;;;;;;;;;;;21.48;27.04;97174.59;4940662;29;1993;-82
2024/03/13 01:23:05;;;;;;;;;;;;;;;21.69;27.28;97177.84;4924364;29;1116;-82
2024/03/13 01:25:31;;;;;;;;;;;;;;;21.69;26.79;97183.50;4952327;29;1352;-83
2024/03/13 01:27:57;;;;;;;;;;;;;;;21.90;26.79;97187.50;4946064;29;1054;-83
2024/03/13 01:30:23;;;;;;;;;;;;;;;21.82;26.87;97187.03;4961640;28;1337;-82
2024/03/13 01:32:49;;;;;;;;;;;;;;;21.92;26.74;97190.69;4914859;29;947;-82
2024/03/13 01:35:16;;;;;;;;;;;;;;;22.04;26.08;97192.59;4951335;28;1613;-83
2024/03/13 01:38:01;;;;;;;;;;;;;;;21.68;26.87;97188.38;5001098;28;898;-83
2024/03/13 01:57:12;;;;;;;;;;;;;;;21.76;26.48;97167.03;5046304;28;822;-83
2024/03/13 01:59:48;;;;;;;;;;;;;;;21.85;26.65;97164.22;5058359;28;1381;-83
2024/03/13 02:02:22;;;;;;;;;;;;;;;21.79;26.59;97166.06;5040864;28;1914;-83
2024/03/13 02:04:49;;;;;;;;;;;;;;;21.75;26.85;97148.44;5023871;28;1510;-82
2024/03/13 02:07:18;;;;;;;;;;;;;;;21.66;26.82;97156.91;5041153;28;760;-83
2024/03/13 02:09:44;;;;;;;;;;;;;;;21.71;26.89;97158.31;5040174;28;943;-82
2024/03/13 02:12:12;;;;;;;;;;;;;;;21.74;26.91;97158.19;5024922;28;699;-83
2024/03/13 02:14:38;;;;;;;;;;;;;;;21.54;26.88;97154.97;5023508;28;1384;-83
2024/03/13 02:17:03;;;;;;;;;;;;;;;21.51;26.89;97165.19;5041085;28;769;-83
2024/03/13 02:19:29;;;;;;;;;;;;;;;21.73;26.88;97161.50;5039841;28;854;-83
2024/03/13 02:21:59;;;;;;;;;;;;;;;21.96;26.39;97157.31;5024552;28;1918;-82
2024/03/13 02:24:25;;;;;;;;;;;;;;;21.67;26.77;97158.50;5040090;28;798;-82
2024/03/13 02:26:50;;;;;;;;;;;;;;;21.83;26.76;97155.41;5040649;28;1412;-82
2024/03/13 02:29:16;;;;;;;;;;;;;;;21.78;26.78;97150.34;5023792;28;1255;-82
2024/03/13 02:31:41;;;;;;;;;;;;;;;21.92;26.58;97159.53;5025064;28;1127;-83
2024/03/13 02:34:08;;;;;;;;;;;;;;;21.77;26.61;97160.09;5040157;28;798;-83
2024/03/13 02:36:34;;;;;;;;;;;;;;;21.46;27.10;97154.47;5039965;28;1580;-82
2024/03/13 02:39:01;;;;;;;;;;;;;;;21.52;26.91;97157.47;5006438;28;1002;-82
2024/03/13 02:41:26;;;;;;;;;;;;;;;21.85;26.49;97152.88;5041373;28;1918;-83
2024/03/13 02:43:52;;;;;;;;;;;;;;;21.85;26.33;97158.53;5040201;28;755;-83
2024/03/13 02:46:18;;;;;;;;;;;;;;;21.84;26.60;97156.97;5040266;28;1494;-83
2024/03/13 02:48:43;;;;;;;;;;;;;;;21.88;26.33;97154.00;5040317;28;838;-82
2024/03/13 02:51:09;;;;;;;;;;;;;;;21.95;26.36;97155.75;5024676;28;775;-82
2024/03/13 02:53:34;;;;;;;;;;;;;;;21.51;26.92;97145.38;5022250;28;969;-82
2024/03/13 02:56:01;;;;;;;;;;;;;;;21.36;27.17;97146.41;5023901;28;1338;-82
2024/03/13 02:58:27;;;;;;;;;;;;;;;21.62;26.89;97139.28;5055075;28;918;-82
2024/03/13 03:00:54;;;;;;;;;;;;;;;21.61;26.98;97143.38;5056726;28;1914;-81
2024/03/13 03:03:20;;;;;;;;;;;;;;;21.62;26.89;97139.28;5006571;28;1429;-82
2024/03/13 03:05:46;;;;;;;;;;;;;;;21.78;26.85;97133.34;5041179;28;1559;-82
2024/03/13 03:08:12;;;;;;;;;;;;;;;21.72;26.83;97143.72;5022607;28;838;-82
2024/03/13 03:10:37;;;;;;;;;;;;;;;21.73;26.90;97145.28;5039967;28;787;-82
2024/03/13 03:13:04;;;;;;;;;;;;;;;21.69;26.62;97149.53;5042560;28;902;-82
2024/03/13 03:15:33;;;;;;;;;;;;;;;21.97;26.49;97139.09;5044422;28;1575;-82
2024/03/13 03:18:00;;;;;;;;;;;;;;;21.67;26.81;97135.84;5042810;28;842;-82
2024/03/13 03:20:26;;;;;;;;;;;;;;;21.73;26.98;97133.97;5026322;28;1918;-82
2024/03/13 03:22:53;;;;;;;;;;;;;;;21.75;26.98;97137.09;5042196;28;954;-82
2024/03/13 03:25:18;;;;;;;;;;;;;;;21.86;26.72;97131.00;5025859;28;1355;-82
2024/03/13 03:27:44;;;;;;;;;;;;;;;21.90;26.81;97130.88;5042360;28;1286;-82
2024/03/13 03:30:11;;;;;;;;;;;;;;;21.91;26.71;97129.59;5041794;28;849;-82
2024/03/13 03:32:37;;;;;;;;;;;;;;;21.76;26.66;97127.38;5026670;28;1204;-83
2024/03/13 03:35:04;;;;;;;;;;;;;;;21.82;26.43;97130.38;5024413;28;1472;-82
2024/03/13 03:37:30;;;;;;;;;;;;;;;21.52;27.13;97140.50;5045483;28;1268;-81
2024/03/13 03:39:56;;;;;;;;;;;;;;;21.63;26.85;97143.69;5028783;28;1063;-82
2024/03/13 03:42:24;;;;;;;;;;;;;;;21.60;26.99;97136.09;5029071;28;1895;-82
2024/03/13 03:44:49;;;;;;;;;;;;;;;21.78;26.73;97136.19;5044469;28;1547;-82
2024/03/13 03:47:15;;;;;;;;;;;;;;;21.78;26.52;97144.69;5042362;28;1352;-82
2024/03/13 03:49:41;;;;;;;;;;;;;;;21.51;27.20;97144.59;5043881;28;1518;-82
2024/03/13 03:52:07;;;;;;;;;;;;;;;21.50;27.05;97137.31;5061076;28;1385;-82
2024/03/13 03:54:34;;;;;;;;;;;;;;;21.61;26.79;97132.06;5020922;28;869;-82
2024/03/13 03:57:00;;;;;;;;;;;;;;;21.98;26.49;97137.81;5018505;28;1538;-82
2024/03/13 03:59:25;;;;;;;;;;;;;;;22.06;26.33;97133.41;4985572;28;810;-82
2024/03/13 04:01:51;;;;;;;;;;;;;;;21.87;26.63;97132.59;5002407;28;1910;-82
2024/03/13 04:04:16;;;;;;;;;;;;;;;21.77;26.77;97114.78;4985910;28;944;-82
2024/03/13 04:06:43;;;;;;;;;;;;;;;21.80;26.42;97116.69;4993949;28;1424;-82
2024/03/13 04:09:14;;;;;;;;;;;;;;;21.80;26.74;97119.50;5017126;28;887;-82
2024/03/13 04:11:40;;;;;;;;;;;;;;;21.55;26.79;97125.41;5006912;28;862;-82
2024/03/13 04:14:06;;;;;;;;;;;;;;;21.42;27.17;97119.84;5004592;28;826;-82
2024/03/13 04:16:31;;;;;;;;;;;;;;;21.70;26.54;97123.56;5019853;28;1385;-82
2024/03/13 04:18:57;;;;;;;;;;;;;;;21.92;26.31;97120.66;4998615;28;1382;-82
2024/03/13 04:21:22;;;;;;;;;;;;;;;21.85;26.56;97124.56;4985604;28;1944;-82
2024/03/13 04:23:49;;;;;;;;;;;;;;;21.76;26.65;97130.22;4983444;28;922;-82
2024/03/13 04:26:15;;;;;;;;;;;;;;;21.94;26.51;97128.69;5017114;28;1578;-82
2024/03/13 04:28:43;;;;;;;;;;;;;;;21.84;26.62;97131.47;5003491;28;1316;-82
2024/03/13 04:31:10;;;;;;;;;;;;;;;21.81;26.62;97135.25;5006502;28;822;-82
2024/03/13 04:33:36;;;;;;;;;;;;;;;21.65;26.70;97135.50;4987792;28;1178;-82
2024/03/13 04:36:02;;;;;;;;;;;;;;;21.55;26.88;97139.56;5022367;28;788;-82
2024/03/13 04:38:28;;;;;;;;;;;;;;;21.57;26.72;97129.34;5003271;28;1274;-82
2024/03/13 04:40:53;;;;;;;;;;;;;;;21.74;26.67;97129.88;5022293;28;1899;-82
2024/03/13 04:43:19;;;;;;;;;;;;;;;21.70;26.57;97132.06;5004079;28;911;-82
2024/03/13 04:45:44;;;;;;;;;;;;;;;21.88;26.43;97127.72;5004962;28;1088;-82
2024/03/13 04:48:10;;;;;;;;;;;;;;;21.99;26.15;97128.84;5004517;28;722;-82
2024/03/13 04:50:36;;;;;;;;;;;;;;;21.75;26.57;97120.13;5033894;28;762;-82
2024/03/13 04:53:02;;;;;;;;;;;;;;;21.67;26.41;97126.56;5024653;28;1524;-82
2024/03/13 04:55:30;;;;;;;;;;;;;;;21.49;26.71;97127.25;5021763;28;1514;-82
2024/03/13 04:57:56;;;;;;;;;;;;;;;21.76;26.48;97127.38;5037578;28;755;-82
2024/03/13 05:00:22;;;;;;;;;;;;;;;21.77;26.51;97128.97;5024948;28;1883;-81
2024/03/13 05:02:48;;;;;;;;;;;;;;;21.82;26.58;97139.66;5041252;28;1114;-82
2024/03/13 05:05:16;;;;;;;;;;;;;;;21.91;26.26;97143.75;5041852;28;842;-82
2024/03/13 05:07:42;;;;;;;;;;;;;;;21.79;26.42;97142.63;5058420;28;814;-81
2024/03/13 05:10:09;;;;;;;;;;;;;;;21.80;26.48;97144.22;5042028;28;836;-82
2024/03/13 05:12:36;;;;;;;;;;;;;;;21.65;26.69;97144.00;5041566;28;789;-82
2024/03/13 05:15:06;;;;;;;;;;;;;;;21.59;26.75;97146.66;5008377;28;1180;-82
2024/03/13 05:17:34;;;;;;;;;;;;;;;21.87;26.16;97149.59;5042386;28;805;-82
2024/03/13 05:20:00;;;;;;;;;;;;;;;21.93;26.38;97152.59;5040373;28;838;-82
2024/03/13 05:22:32;;;;;;;;;;;;;;;21.88;26.39;97148.34;5007840;28;1960;-82
2024/03/13 05:24:58;;;;;;;;;;;;;;;21.99;26.01;97150.72;5039713;28;1246;-81
2024/03/13 05:27:26;;;;;;;;;;;;;;;22.03;26.16;97151.38;5023905;28;1186;-82
2024/03/13 05:29:52;;;;;;;;;;;;;;;21.88;26.35;97153.22;5041287;28;708;-82
2024/03/13 05:32:18;;;;;;;;;;;;;;;21.75;26.17;97159.75;5036991;28;1297;-82
2024/03/13 05:34:43;;;;;;;;;;;;;;;21.29;27.01;97156.69;5020729;28;1245;-82
2024/03/13 05:37:09;;;;;;;;;;;;;;;21.82;26.35;97153.81;5023003;28;1407;-82
2024/03/13 05:39:35;;;;;;;;;;;;;;;21.84;26.15;97153.34;5012548;28;1210;-82
2024/03/13 05:42:00;;;;;;;;;;;;;;;21.79;26.58;97149.09;5012285;28;1914;-81
2024/03/13 05:44:27;;;;;;;;;;;;;;;21.83;26.16;97158.22;5029717;28;1432;-82
2024/03/13 05:46:54;;;;;;;;;;;;;;;21.82;26.35;97153.81;5014288;28;1269;-82
2024/03/13 05:49:20;;;;;;;;;;;;;;;21.44;26.74;97162.63;5029506;28;1302;-82
2024/03/13 05:51:47;;;;;;;;;;;;;;;21.40;26.61;97162.00;5013939;28;1230;-82
2024/03/13 05:54:12;;;;;;;;;;;;;;;21.43;26.91;97168.75;5010522;28;1333;-82
2024/03/13 05:56:38;;;;;;;;;;;;;;;21.88;26.15;97167.38;5013913;28;1467;-81
2024/03/13 05:59:03;;;;;;;;;;;;;;;21.62;26.76;97178.91;5013988;28;1068;-82
2024/03/13 06:01:29;;;;;;;;;;;;;;;21.61;26.69;97176.56;5010709;28;1895;-81
2024/03/13 06:03:56;;;;;;;;;;;;;;;22.05;26.06;97183.63;5029111;28;1367;-81
2024/03/13 06:06:25;;;;;;;;;;;;;;;21.84;26.28;97182.47;4977830;28;1299;-82
2024/03/13 06:08:50;;;;;;;;;;;;;;;21.81;26.27;97186.25;4977482;28;1341;-81
2024/03/13 06:11:18;;;;;;;;;;;;;;;21.54;26.52;97186.09;4999031;28;1416;-81
2024/03/13 06:13:44;;;;;;;;;;;;;;;21.74;26.46;97180.84;4989628;28;1305;-81
2024/03/13 06:16:10;;;;;;;;;;;;;;;21.85;26.26;97177.56;4982883;28;1263;-81
2024/03/13 06:18:35;;;;;;;;;;;;;;;21.72;26.32;97177.69;4980799;28;1425;-82
2024/03/13 06:21:03;;;;;;;;;;;;;;;21.92;26.05;97179.34;4983002;28;1910;-82
2024/03/13 06:23:28;;;;;;;;;;;;;;;22.08;25.75;97181.91;4980830;28;1278;-83
2024/03/13 06:25:57;;;;;;;;;;;;;;;21.81;26.41;97186.25;4967319;28;1243;-82
2024/03/13 06:31:07;;;;;;;;;;;;;;;21.29;26.89;97179.31;4999803;28;913;-81
2024/03/13 06:33:32;;;;;;;;;;;;;;;21.73;26.45;97184.94;4997472;28;1357;-82
2024/03/13 06:35:58;;;;;;;;;;;;;;;21.85;26.09;97184.03;4990314;28;1231;-82
2024/03/13 06:38:24;;;;;;;;;;;;;;;21.81;26.42;97185.44;5018243;28;1254;-82
2024/03/13 06:40:50;;;;;;;;;;;;;;;21.84;26.37;97185.28;5032171;28;1883;-81
2024/03/13 06:43:16;;;;;;;;;;;;;;;21.61;26.57;97176.56;5028859;28;1222;-82
2024/03/13 06:45:47;;;;;;;;;;;;;;;21.34;26.98;97186.47;5031481;28;1256;-81
2024/03/13 06:48:13;;;;;;;;;;;;;;;21.61;26.58;97187.88;5008963;28;1345;-80
2024/03/13 06:50:38;;;;;;;;;;;;;;;21.87;26.39;97191.28;5028440;28;1226;-81
2024/03/13 06:53:04;;;;;;;;;;;;;;;21.80;26.40;97178.97;4992461;28;1278;-80
2024/03/13 06:55:30;;;;;;;;;;;;;;;21.97;26.25;97188.03;5028518;28;1261;-81
2024/03/13 06:57:55;;;;;;;;;;;;;;;21.79;26.54;97188.72;5009084;28;1254;-82
2024/03/13 07:00:21;;;;;;;;;;;;;;;21.72;26.12;97197.53;5002359;28;1973;-81
2024/03/13 07:02:47;;;;;;;;;;;;;;;21.47;26.61;97200.53;4996055;28;1234;-82
2024/03/13 07:05:13;;;;;;;;;;;;;;;21.40;26.63;97200.78;5026411;28;1323;-81
2024/03/13 07:07:40;;;;;;;;;;;;;;;21.78;26.48;97198.50;4996384;28;1204;-81
2024/03/13 07:10:10;;;;;;;;;;;;;;;21.89;26.38;97203.72;4994266;28;1222;-81
2024/03/13 07:12:37;;;;;;;;;;;;;;;21.74;26.63;97197.84;5006299;28;1258;-81
2024/03/13 07:15:04;;;;;;;;;;;;;;;21.87;26.47;97199.78;5006113;28;1352;-81
2024/03/13 07:17:30;;;;;;;;;;;;;;;21.84;26.40;97215.66;5009733;28;1274;-81
2024/03/13 07:19:56;;;;;;;;;;;;;;;21.82;26.21;97210.47;5001839;28;1369;-81
2024/03/13 07:22:21;;;;;;;;;;;;;;;21.69;26.13;97209.75;5007353;28;1922;-81
2024/03/13 07:24:47;;;;;;;;;;;;;;;22.04;26.36;97210.38;5008468;28;1219;-81
2024/03/13 07:27:12;;;;;;;;;;;;;;;21.89;26.52;97208.59;4997507;28;1443;-81
2024/03/13 07:29:38;;;;;;;;;;;;;;;21.84;26.42;97207.94;4965016;28;1275;-81
2024/03/13 07:32:03;;;;;;;;;;;;;;;21.90;26.28;97204.50;4942795;29;1264;-81
2024/03/13 07:34:29;;;;;;;;;;;;;;;22.00;26.14;97204.06;4942377;29;1248;-83
2024/03/13 07:36:54;;;;;;;;;;;;;;;21.83;26.51;97209.22;4958997;29;1256;-82
2024/03/13 07:39:21;;;;;;;;;;;;;;;21.77;26.57;97207.44;4942615;29;1137;-82
2024/03/13 07:41:46;;;;;;;;;;;;;;;21.40;26.82;97206.47;4943103;29;1980;-81
2024/03/13 07:44:12;;;;;;;;;;;;;;;21.67;26.48;97206.63;4939004;29;1366;-82
2024/03/13 07:46:37;;;;;;;;;;;;;;;21.87;26.26;97211.13;4908469;29;1291;-81
2024/03/13 07:49:03;;;;;;;;;;;;;;;21.98;26.21;97214.31;4924349;29;1421;-82
2024/03/13 07:51:28;;;;;;;;;;;;;;;21.82;26.80;97209.69;4954513;29;948;-82
2024/03/13 07:53:54;;;;;;;;;;;;;;;21.83;26.74;97212.03;4959465;29;888;-82
2024/03/13 07:56:20;;;;;;;;;;;;;;;21.62;26.51;97210.06;4960277;29;799;-82
2024/03/13 07:58:45;;;;;;;;;;;;;;;21.70;26.48;97210.56;4961595;28;964;-82
2024/03/13 08:01:11;;;;;;;;;;;;;;;21.76;26.45;97217.19;4979851;28;1914;-81
2024/03/13 08:03:36;;;;;;;;;;;;;;;21.97;26.50;97209.91;4975264;28;997;-82
2024/03/13 08:06:02;;;;;;;;;;;;;;;21.88;26.35;97219.13;5018459;28;955;-82
2024/03/13 08:08:28;;;;;;;;;;;;;;;21.92;26.51;97213.34;5000845;28;700;-82
2024/03/13 08:10:53;;;;;;;;;;;;;;;21.92;26.37;97207.69;4983075;28;822;-82
2024/03/13 08:13:19;;;;;;;;;;;;;;;21.84;26.35;97207.16;4980944;28;842;-82
2024/03/13 08:15:44;;;;;;;;;;;;;;;21.76;26.70;97212.34;5000128;28;1294;-82
2024/03/13 08:18:14;;;;;;;;;;;;;;;21.66;26.55;97213.53;5020797;28;909;-82
2024/03/13 08:20:40;;;;;;;;;;;;;;;21.28;27.04;97211.72;5023673;28;1966;-82
2024/03/13 08:23:08;;;;;;;;;;;;;;;21.88;26.66;97204.97;5048201;28;955;-82
2024/03/13 08:25:34;;;;;;;;;;;;;;;21.71;26.84;97207.28;5024794;28;933;-82
2024/03/13 08:27:59;;;;;;;;;;;;;;;21.67;26.77;97220.78;5040947;28;1313;-82
2024/03/13 08:30:26;;;;;;;;;;;;;;;21.95;26.57;97223.72;5024354;28;757;-82
2024/03/13 08:32:53;;;;;;;;;;;;;;;21.87;26.53;97217.56;5007898;28;1050;-82
2024/03/13 08:35:18;;;;;;;;;;;;;;;21.62;26.75;97212.88;5024112;28;1292;-82
2024/03/13 08:37:44;;;;;;;;;;;;;;;21.58;26.70;97217.88;5024036;28;727;-80
2024/03/13 08:40:11;;;;;;;;;;;;;;;22.03;26.04;97208.03;5023999;28;1914;-80
2024/03/13 08:42:39;;;;;;;;;;;;;;;21.91;26.37;97217.41;5033058;28;1110;-80
2024/03/13 08:45:05;;;;;;;;;;;;;;;21.73;26.85;97207.59;5028932;28;1361;-81
2024/03/13 08:47:31;;;;;;;;;;;;;;;21.91;26.44;97218.19;5003426;28;1409;-81
2024/03/13 08:49:57;;;;;;;;;;;;;;;21.86;26.43;97215.97;4986517;28;1290;-82
2024/03/13 08:52:22;;;;;;;;;;;;;;;21.75;26.45;97216.41;5002668;28;1301;-82
2024/03/13 08:54:48;;;;;;;;;;;;;;;21.59;26.77;97230.78;5003071;28;1262;-82
2024/03/13 08:57:13;;;;;;;;;;;;;;;21.67;26.69;97220.78;4988666;28;919;-81
2024/03/13 08:59:42;;;;;;;;;;;;;;;21.72;26.81;97219.38;5020247;28;946;-82
2024/03/13 09:02:08;;;;;;;;;;;;;;;21.78;26.62;97221.13;5005201;28;1918;-82
2024/03/13 09:04:33;;;;;;;;;;;;;;;21.90;26.46;97222.28;5003750;28;901;-82
2024/03/13 09:07:00;;;;;;;;;;;;;;;21.88;26.71;97218.34;5020759;28;902;-81
2024/03/13 09:09:27;;;;;;;;;;;;;;;21.72;26.55;97211.69;5002985;28;732;-82
2024/03/13 09:11:52;;;;;;;;;;;;;;;21.87;26.52;97225.28;5004400;28;815;-81
2024/03/13 09:14:18;;;;;;;;;;;;;;;21.43;27.17;97228.19;5035608;28;929;-82
2024/03/13 09:16:43;;;;;;;;;;;;;;;21.77;26.78;97219.56;5040784;28;883;-82
2024/03/13 09:19:09;;;;;;;;;;;;;;;21.79;26.99;97228.38;5022874;28;853;-82
2024/03/13 09:21:35;;;;;;;;;;;;;;;21.85;26.88;97226.50;5040395;28;1977;-82
2024/03/13 09:24:01;;;;;;;;;;;;;;;21.86;26.75;97221.63;5021408;28;909;-82
2024/03/13 09:26:27;;;;;;;;;;;;;;;21.96;26.85;97230.97;5022881;28;1069;-82
2024/03/13 09:28:53;;;;;;;;;;;;;;;21.62;27.05;97229.88;5003934;28;1230;-82
2024/03/13 09:31:19;;;;;;;;;;;;;;;21.46;27.33;97219.56;5021947;28;986;-82
2024/03/13 09:33:44;;;;;;;;;;;;;;;21.75;26.60;97222.06;5004465;28;791;-82
2024/03/13 09:36:13;;;;;;;;;;;;;;;21.88;26.87;97230.47;5023150;28;715;-82
2024/03/13 09:38:41;;;;;;;;;;;;;;;21.82;26.97;97227.47;5021197;28;755;-82
2024/03/13 09:41:07;;;;;;;;;;;;;;;21.83;27.03;97229.03;5023140;28;1918;-83
2024/03/13 09:43:33;;;;;;;;;;;;;;;21.91;26.86;97238.00;5016860;28;1267;-83
2024/03/13 09:45:58;;;;;;;;;;;;;;;21.99;26.97;97233.66;5022996;28;719;-82
2024/03/13 09:48:24;;;;;;;;;;;;;;;21.77;27.03;97230.09;5003328;28;1344;-82
2024/03/13 09:50:50;;;;;;;;;;;;;;;21.76;26.93;97226.50;5005544;28;1288;-82
2024/03/13 09:53:16;;;;;;;;;;;;;;;21.74;27.17;97236.69;5003663;28;889;-82
2024/03/13 09:55:44;;;;;;;;;;;;;;;21.79;27.56;97234.03;5022536;28;870;-82
2024/03/13 09:58:11;;;;;;;;;;;;;;;22.10;27.11;97236.06;5003950;28;914;-82
2024/03/13 10:00:38;;;;;;;;;;;;;;;22.12;27.04;97236.38;5020457;28;1944;-82
2024/03/13 10:03:05;;;;;;;;;;;;;;;21.88;27.56;97235.34;5020013;28;925;-82
2024/03/13 10:05:31;;;;;;;;;;;;;;;21.70;27.58;97241.69;5002974;28;947;-81
2024/03/13 10:07:57;;;;;;;;;;;;;;;21.59;27.60;97242.13;5002563;28;975;-82
2024/03/13 10:10:29;;;;;;;;;;;;;;;21.21;27.89;97233.84;5003510;28;1065;-82
2024/03/13 10:12:57;;;;;;;;;;;;;;;21.77;27.24;97242.22;4987460;28;1112;-82
2024/03/13 10:15:23;;;;;;;;;;;;;;;21.83;27.54;97243.19;5003479;28;831;-82
2024/03/13 10:18:01;;;;;;;;;;;;;;;21.73;27.47;97241.56;5003185;28;850;-82
2024/03/13 10:20:28;;;;;;;;;;;;;;;21.95;27.08;97237.88;4986934;28;1982;-82
2024/03/13 10:22:55;;;;;;;;;;;;;;;21.96;27.22;97240.25;4986564;28;819;-82
2024/03/13 10:25:21;;;;;;;;;;;;;;;21.82;27.22;97238.78;5003659;28;978;-82
2024/03/13 10:27:47;;;;;;;;;;;;;;;21.67;27.36;97242.63;5019350;28;1166;-82
2024/03/13 10:30:14;;;;;;;;;;;;;;;21.99;26.96;97247.03;5018644;28;1262;-82
2024/03/13 10:32:40;;;;;;;;;;;;;;;22.07;27.14;97231.31;5019157;28;794;-82
2024/03/13 10:35:08;;;;;;;;;;;;;;;22.03;27.36;97236.34;5019041;28;843;-82
2024/03/13 10:37:34;;;;;;;;;;;;;;;21.85;27.36;97231.38;5002671;28;863;-82
2024/03/13 10:40:03;;;;;;;;;;;;;;;22.00;27.38;97237.28;5002018;28;954;-82
2024/03/13 10:42:28;;;;;;;;;;;;;;;21.93;27.07;97238.34;5006404;28;1883;-82
2024/03/13 10:44:54;;;;;;;;;;;;;;;21.85;27.29;97235.00;5020764;28;786;-82
2024/03/13 10:47:21;;;;;;;;;;;;;;;21.51;27.48;97241.59;5019898;28;763;-82
2024/03/13 10:49:48;;;;;;;;;;;;;;;22.00;27.31;97237.28;5020649;28;778;-82
2024/03/13 10:52:13;;;;;;;;;;;;;;;21.99;27.37;97230.81;5021348;28;739;-82
2024/03/13 10:54:40;;;;;;;;;;;;;;;22.19;26.84;97226.84;5020516;28;750;-82
2024/03/13 10:57:07;;;;;;;;;;;;;;;22.02;27.41;97231.91;5004090;28;1115;-82
2024/03/13 10:59:33;;;;;;;;;;;;;;;21.94;27.40;97222.16;5019752;28;751;-82
2024/03/13 11:01:59;;;;;;;;;;;;;;;21.70;27.47;97219.84;5003304;28;1911;-82
2024/03/13 11:04:26;;;;;;;;;;;;;;;21.85;27.04;97215.19;5003135;28;949;-82
2024/03/13 11:06:53;;;;;;;;;;;;;;;21.40;27.58;97220.59;5020396;28;854;-82
2024/03/13 11:09:21;;;;;;;;;;;;;;;22.09;27.14;97223.94;5019415;28;947;-82
2024/03/13 11:11:56;;;;;;;;;;;;;;;22.01;27.41;97216.97;5019876;28;897;-82
2024/03/13 11:14:23;;;;;;;;;;;;;;;22.00;27.46;97223.09;5019699;28;735;-82
2024/03/13 11:16:50;;;;;;;;;;;;;;;22.00;27.23;97214.63;4999474;28;972;-82
2024/03/13 11:19:15;;;;;;;;;;;;;;;21.69;27.53;97212.59;4981490;28;876;-82
2024/03/13 11:21:55;;;;;;;;;;;;;;;21.53;27.78;97221.31;4999125;28;1914;-81
2024/03/13 11:24:25;;;;;;;;;;;;;;;21.39;28.12;97214.16;4982234;28;839;-82
2024/03/13 11:26:51;;;;;;;;;;;;;;;21.73;27.89;97207.59;4998823;28;1264;-82
2024/03/13 11:29:17;;;;;;;;;;;;;;;22.01;27.44;97210.50;4981812;28;716;-82
2024/03/13 11:31:42;;;;;;;;;;;;;;;21.91;27.58;97211.75;4999544;28;912;-82
2024/03/13 11:34:09;;;;;;;;;;;;;;;21.87;27.79;97213.94;5002023;28;870;-82
2024/03/13 11:36:34;;;;;;;;;;;;;;;21.96;27.29;97205.47;5002657;28;767;-82
2024/03/13 11:39:00;;;;;;;;;;;;;;;21.65;27.92;97206.28;4985621;28;1246;-83
2024/03/13 11:41:25;;;;;;;;;;;;;;;21.75;27.45;97204.28;5003086;28;1906;-82
2024/03/13 11:43:53;;;;;;;;;;;;;;;21.61;27.59;97200.00;5001113;28;917;-83
2024/03/13 11:46:22;;;;;;;;;;;;;;;21.74;28.09;97203.50;4986425;28;823;-82
2024/03/13 11:48:49;;;;;;;;;;;;;;;21.73;27.95;97201.94;5021871;28;866;-83
2024/03/13 11:51:15;;;;;;;;;;;;;;;21.65;28.25;97206.28;5023124;28;787;-81
2024/03/13 11:53:40;;;;;;;;;;;;;;;21.75;28.18;97207.91;5005400;28;767;-81
2024/03/13 11:56:13;;;;;;;;;;;;;;;21.72;27.93;97206.00;5007387;28;1111;-81
2024/03/13 11:58:39;;;;;;;;;;;;;;;21.64;27.76;97199.03;5054488;28;992;-81
2024/03/13 12:01:08;;;;;;;;;;;;;;;21.45;28.02;97203.03;5007573;28;1950;-81
2024/03/13 12:03:47;;;;;;;;;;;;;;;21.72;28.01;97202.41;5021646;28;811;-81
2024/03/13 12:06:19;;;;;;;;;;;;;;;21.74;28.20;97203.50;5042023;28;1018;-82
2024/03/13 12:08:45;;;;;;;;;;;;;;;21.78;28.07;97197.69;5040861;28;917;-82
2024/03/13 12:11:17;;;;;;;;;;;;;;;21.84;27.96;97202.28;5025582;28;789;-82
2024/03/13 12:13:42;;;;;;;;;;;;;;;21.63;28.05;97191.81;5007975;28;887;-82
2024/03/13 12:16:09;;;;;;;;;;;;;;;21.61;28.06;97199.19;5008868;28;1302;-81
2024/03/13 12:18:34;;;;;;;;;;;;;;;21.81;27.65;97199.59;4984220;28;1259;-82
2024/03/13 12:21:01;;;;;;;;;;;;;;;21.93;27.60;97203.59;4986416;28;1887;-82
2024/03/13 12:23:27;;;;;;;;;;;;;;;21.90;27.75;97202.47;4985569;28;811;-82
2024/03/13 12:25:52;;;;;;;;;;;;;;;22.04;27.73;97198.25;4985909;28;791;-81
2024/03/13 12:28:20;;;;;;;;;;;;;;;21.87;28.02;97199.78;4965082;28;1101;-81
2024/03/13 12:30:48;;;;;;;;;;;;;;;21.82;27.57;97210.47;4963241;29;889;-80
2024/03/13 12:33:14;;;;;;;;;;;;;;;21.76;27.56;97206.66;4962032;29;994;-81
2024/03/13 12:35:40;;;;;;;;;;;;;;;21.68;27.68;97199.69;4962967;29;927;-82
2024/03/13 12:38:05;;;;;;;;;;;;;;;21.97;27.86;97198.56;4913144;28;957;-81
2024/03/13 12:40:33;;;;;;;;;;;;;;;21.95;27.80;97201.06;4940355;28;1902;-82
2024/03/13 12:43:00;;;;;;;;;;;;;;;22.11;27.71;97203.66;4908582;29;896;-82
2024/03/13 12:45:26;;;;;;;;;;;;;;;21.94;27.88;97194.59;4939341;28;1073;-82
2024/03/13 12:47:51;;;;;;;;;;;;;;;21.82;27.95;97201.19;4908479;29;922;-82
2024/03/13 12:50:17;;;;;;;;;;;;;;;21.81;27.99;97208.06;4958610;28;1139;-82
2024/03/13 12:52:44;;;;;;;;;;;;;;;21.57;27.86;97210.66;4943125;29;881;-82
2024/03/13 12:55:10;;;;;;;;;;;;;;;21.23;28.40;97203.03;4964400;28;1248;-82
2024/03/13 12:57:36;;;;;;;;;;;;;;;21.87;28.16;97205.44;4998259;28;1167;-81
2024/03/13 13:00:14;;;;;;;;;;;;;;;21.90;28.23;97204.50;4993047;28;935;-81
2024/03/13 13:02:42;;;;;;;;;;;;;;;21.79;28.23;97204.94;4982335;28;1899;-80
2024/03/13 13:05:08;;;;;;;;;;;;;;;21.75;28.17;97205.06;5016272;28;1254;-81
2024/03/13 13:07:35;;;;;;;;;;;;;;;21.60;28.31;97201.22;5000370;28;1285;-81
2024/03/13 13:10:06;;;;;;;;;;;;;;;21.51;28.26;97206.84;5000389;28;1341;-81
2024/03/13 13:12:31;;;;;;;;;;;;;;;21.70;27.82;97208.50;4983943;28;1263;-82
2024/03/13 13:14:57;;;;;;;;;;;;;;;21.58;28.23;97206.56;4999800;28;1318;-82